Time;durP1;ratioP1;P1;durP2;ratioP2;P2;SDS_P1;SDS_P2;PMS_P1;PMS_P2;Temp;Humidity;BMP_temperature;BMP_pressure;BME280_temperature;BME280_humidity;BME280_pressure;Samples;Min_cycle;Max_cycle;Signal;HPM_P1;HPM_P2
2021/04/30 00:01:08;;;;;;;3.50;1.60;;;;;;;9.72;79.66;100065.13;5053015;28;20446;-71
2021/04/30 00:03:34;;;;;;;6.73;2.10;;;;;;;9.67;79.76;100059.84;5053053;28;20450;-71
2021/04/30 00:06:00;;;;;;;2.30;1.93;;;;;;;9.65;78.11;100062.88;5053106;28;20449;-71
2021/04/30 00:08:26;;;;;;;3.23;2.20;;;;;;;9.55;78.57;100072.00;5052728;28;20939;-71
2021/04/30 00:10:52;;;;;;;2.40;1.57;;;;;;;9.62;78.28;100070.78;5052915;28;20539;-70
2021/04/30 00:13:18;;;;;;;3.23;2.10;;;;;;;9.57;77.63;100069.00;5052867;28;20462;-70
2021/04/30 00:15:45;;;;;;;3.73;2.33;;;;;;;9.50;77.87;100071.34;5052966;28;20947;-72
2021/04/30 00:18:11;;;;;;;3.40;2.40;;;;;;;9.56;79.04;100070.09;5053062;28;20442;-72
2021/04/30 00:20:40;;;;;;;6.53;1.77;;;;;;;9.53;77.81;100068.81;5052977;28;20468;-72
2021/04/30 00:23:11;;;;;;;3.03;1.60;;;;;;;9.59;77.80;100067.59;5052569;28;20599;-72
2021/04/30 00:25:38;;;;;;;1.77;1.50;;;;;;;9.58;77.73;100068.69;5052980;28;20423;-72
2021/04/30 00:28:04;;;;;;;4.20;2.27;;;;;;;9.59;78.06;100064.09;5052806;28;20446;-72
2021/04/30 00:30:30;;;;;;;2.63;1.70;;;;;;;9.62;78.54;100055.38;5052809;28;20486;-72
2021/04/30 00:32:57;;;;;;;1.67;1.57;;;;;;;9.68;78.57;100064.16;5052859;28;20467;-72
2021/04/30 00:35:23;;;;;;;4.53;1.90;;;;;;;9.71;78.91;100060.84;5052591;28;20465;-73
2021/04/30 00:37:48;;;;;;;5.10;2.30;;;;;;;9.67;78.42;100065.25;5052878;28;20442;-72
2021/04/30 00:40:15;;;;;;;3.90;3.27;;;;;;;9.65;78.19;100064.75;5052856;28;20434;-72
2021/04/30 00:42:41;;;;;;;2.20;2.00;;;;;;;9.63;77.83;100081.28;5052711;28;20818;-72
2021/04/30 00:45:14;;;;;;;3.40;1.37;;;;;;;9.62;79.24;100068.09;5052711;28;20481;-73
2021/04/30 00:47:40;;;;;;;3.40;1.80;;;;;;;9.59;77.73;100073.00;5052393;28;20915;-72
2021/04/30 00:50:10;;;;;;;1.70;1.40;;;;;;;9.50;78.90;100076.75;5058823;28;20496;-73
2021/04/30 00:52:36;;;;;;;4.67;2.57;;;;;;;9.48;78.60;100085.16;5052759;28;20454;-73
2021/04/30 00:55:04;;;;;;;3.30;3.00;;;;;;;9.49;78.77;100081.34;5052791;28;20433;-72
2021/04/30 00:57:30;;;;;;;3.63;2.90;;;;;;;9.51;78.74;100079.13;5052664;28;20454;-72
2021/04/30 00:59:57;;;;;;;4.23;2.50;;;;;;;9.51;79.43;100084.53;5052549;28;20450;-72
2021/04/30 01:02:23;;;;;;;3.20;2.23;;;;;;;9.53;78.95;100093.16;5054546;28;20527;-72
2021/04/30 01:04:50;;;;;;;2.13;1.80;;;;;;;9.51;79.73;100091.84;5056312;28;20445;-72
2021/04/30 01:07:16;;;;;;;4.53;2.53;;;;;;;9.53;79.04;100097.75;5060452;28;20457;-72
2021/04/30 01:09:42;;;;;;;2.30;1.87;;;;;;;9.38;80.04;100096.19;5076093;28;20503;-72
2021/04/30 01:12:10;;;;;;;4.77;1.70;;;;;;;9.41;79.66;100090.19;5075898;28;20465;-72
2021/04/30 01:14:36;;;;;;;4.37;1.90;;;;;;;9.42;79.89;100093.69;5075971;28;20441;-72
2021/04/30 01:17:02;;;;;;;5.37;2.57;;;;;;;9.40;79.09;100104.00;5076002;28;20490;-72
2021/04/30 01:19:30;;;;;;;3.33;2.40;;;;;;;9.42;79.93;100101.78;5076083;28;20449;-72
2021/04/30 01:21:59;;;;;;;2.83;2.20;;;;;;;9.32;79.91;100095.50;5066939;28;20482;-71
2021/04/30 01:24:25;;;;;;;1.20;1.13;;;;;;;9.33;79.97;100102.50;5055814;28;20442;-71
2021/04/30 01:26:52;;;;;;;4.73;1.80;;;;;;;9.37;79.95;100104.63;5055816;28;20468;-72
2021/04/30 01:29:18;;;;;;;2.33;1.47;;;;;;;9.37;79.89;100112.72;5055328;28;20438;-72
2021/04/30 01:31:45;;;;;;;2.63;1.27;;;;;;;9.33;80.05;100110.63;5054968;28;21029;-71
2021/04/30 01:34:12;;;;;;;3.63;1.90;;;;;;;9.30;79.71;100108.53;5050004;28;20463;-71
2021/04/30 01:36:39;;;;;;;3.50;1.57;;;;;;;9.31;80.65;100112.03;5035494;28;20446;-71
2021/04/30 01:39:08;;;;;;;2.37;1.27;;;;;;;9.38;80.29;100119.72;5035208;28;20439;-71
2021/04/30 01:41:35;;;;;;;2.50;2.00;;;;;;;9.42;80.16;100115.31;5035403;28;20455;-71
2021/04/30 01:44:01;;;;;;;2.63;2.07;;;;;;;9.41;80.22;100113.72;5035354;28;20446;-71
2021/04/30 01:46:27;;;;;;;3.00;1.70;;;;;;;9.32;80.67;100127.16;5035057;28;20443;-71
2021/04/30 01:48:53;;;;;;;2.73;1.40;;;;;;;9.28;80.41;100126.16;5035303;28;20518;-72
2021/04/30 01:51:19;;;;;;;1.97;1.50;;;;;;;9.26;80.62;100123.75;5035154;28;20499;-71
2021/04/30 01:53:45;;;;;;;6.10;1.77;;;;;;;9.28;81.42;100135.06;5035332;28;20443;-70
2021/04/30 01:56:13;;;;;;;1.80;1.70;;;;;;;9.28;80.66;100128.84;5035314;28;20442;-71
2021/04/30 01:58:40;;;;;;;3.43;1.00;;;;;;;9.30;80.94;100127.47;5035291;28;20451;-71
2021/04/30 02:01:06;;;;;;;3.10;1.53;;;;;;;9.23;81.21;100134.38;5035145;28;20435;-71
2021/04/30 02:03:32;;;;;;;2.93;1.60;;;;;;;9.28;81.97;100134.25;5034685;28;20962;-71
2021/04/30 02:05:58;;;;;;;2.40;2.10;;;;;;;9.20;81.25;100137.66;5035182;28;20447;-71
2021/04/30 02:08:25;;;;;;;6.23;3.60;;;;;;;9.14;81.96;100136.19;5034945;28;20442;-71
2021/04/30 02:10:51;;;;;;;3.40;2.00;;;;;;;9.14;82.36;100145.09;5035035;28;20545;-71
2021/04/30 02:13:19;;;;;;;1.80;1.20;;;;;;;9.13;82.84;100145.41;5034373;28;20979;-71
2021/04/30 02:15:47;;;;;;;2.23;1.93;;;;;;;9.14;82.63;100141.59;5034879;28;20443;-71
2021/04/30 02:18:13;;;;;;;4.83;1.87;;;;;;;9.15;83.37;100152.09;5034875;28;20808;-71
2021/04/30 02:20:40;;;;;;;9.23;2.50;;;;;;;9.22;82.49;100149.00;5034818;28;20816;-71
2021/04/30 02:23:06;;;;;;;2.00;1.60;;;;;;;9.10;83.70;100152.19;5034608;28;20470;-71
2021/04/30 02:25:33;;;;;;;2.10;1.00;;;;;;;9.10;83.59;100155.69;5034636;28;20439;-71
2021/04/30 02:28:01;;;;;;;2.27;1.87;;;;;;;9.09;83.59;100150.59;5034595;28;20459;-73
2021/04/30 02:30:30;;;;;;;2.23;1.20;;;;;;;9.08;83.78;100157.91;5034492;28;20490;-71
2021/04/30 02:32:56;;;;;;;2.83;1.50;;;;;;;9.09;84.18;100162.22;5034500;28;20451;-71
2021/04/30 02:35:24;;;;;;;2.73;2.10;;;;;;;9.07;84.39;100155.50;5034089;28;20459;-72
2021/04/30 02:37:52;;;;;;;2.37;1.80;;;;;;;9.02;84.38;100169.91;5034440;28;20442;-71
2021/04/30 02:40:21;;;;;;;1.33;1.17;;;;;;;9.01;84.82;100167.50;5034036;28;20501;-72
2021/04/30 02:42:47;;;;;;;2.30;1.50;;;;;;;8.96;85.09;100164.91;5034015;28;21054;-72
2021/04/30 02:45:16;;;;;;;4.13;2.43;;;;;;;8.92;86.10;100166.63;5034711;28;20546;-72
2021/04/30 02:47:46;;;;;;;4.10;1.60;;;;;;;8.93;85.78;100170.91;5034486;28;20458;-72
2021/04/30 02:50:14;;;;;;;2.10;1.57;;;;;;;8.91;86.23;100168.53;5034124;28;20478;-72
2021/04/30 02:52:40;;;;;;;5.87;1.80;;;;;;;8.81;87.31;100179.53;5034156;28;20462;-71
2021/04/30 02:55:07;;;;;;;3.57;2.50;;;;;;;8.78;88.02;100180.13;5034334;28;20451;-72
2021/04/30 02:57:33;;;;;;;1.70;1.27;;;;;;;8.79;88.21;100181.72;5033875;28;20447;-71
2021/04/30 02:59:59;;;;;;;3.63;2.63;;;;;;;8.72;89.45;100178.59;5033869;28;20481;-71
2021/04/30 03:02:26;;;;;;;2.87;2.60;;;;;;;8.63;90.76;100191.97;5033776;28;20976;-71
2021/04/30 03:04:53;;;;;;;5.57;2.83;;;;;;;8.49;92.05;100199.25;5034119;28;20450;-71
2021/04/30 03:07:19;;;;;;;3.70;2.10;;;;;;;8.36;93.01;100190.00;5039921;28;20952;-72
2021/04/30 03:09:45;;;;;;;3.23;1.40;;;;;;;8.32;94.46;100206.00;5033848;28;20435;-71
2021/04/30 03:12:11;;;;;;;2.73;1.50;;;;;;;8.18;96.15;100204.31;5033757;28;20546;-71
2021/04/30 03:14:36;;;;;;;3.63;1.37;;;;;;;8.12;97.75;100206.31;5033850;28;20467;-71
2021/04/30 03:17:03;;;;;;;3.63;1.97;;;;;;;8.03;98.68;100208.06;5033763;28;20937;-71
2021/04/30 03:19:28;;;;;;;3.47;2.37;;;;;;;8.00;99.87;100206.75;5033811;28;20450;-71
2021/04/30 03:21:56;;;;;;;4.50;3.47;;;;;;;7.93;100.00;100208.22;5033662;28;20459;-71
2021/04/30 03:24:22;;;;;;;4.47;2.40;;;;;;;7.91;100.00;100216.59;5032703;28;21022;-71
2021/04/30 03:26:48;;;;;;;1.63;1.50;;;;;;;7.87;100.00;100214.78;5033636;28;20439;-71
2021/04/30 03:29:14;;;;;;;2.20;1.50;;;;;;;7.86;100.00;100207.78;5033576;28;20443;-71
2021/04/30 03:31:41;;;;;;;3.60;2.27;;;;;;;7.86;100.00;100205.88;5033323;28;20498;-69
2021/04/30 03:34:07;;;;;;;3.20;2.10;;;;;;;7.86;100.00;100219.38;5033206;28;20448;-69
2021/04/30 03:36:33;;;;;;;2.43;1.50;;;;;;;7.90;100.00;100219.59;5033378;28;20427;-68
2021/04/30 03:39:02;;;;;;;1.67;1.30;;;;;;;7.89;100.00;100223.38;5033485;28;20443;-72
2021/04/30 03:41:29;;;;;;;4.57;2.70;;;;;;;7.88;100.00;100228.00;5033317;28;20536;-72
2021/04/30 03:43:55;;;;;;;2.53;1.80;;;;;;;7.89;100.00;100216.09;5041247;28;20954;-72
2021/04/30 03:46:22;;;;;;;2.30;1.97;;;;;;;7.88;100.00;100228.00;5053122;28;20454;-72
2021/04/30 03:48:48;;;;;;;3.33;2.40;;;;;;;7.90;100.00;100227.69;5053261;28;20438;-72
2021/04/30 03:51:14;;;;;;;3.17;1.77;;;;;;;7.89;100.00;100229.59;5052947;28;21049;-71
2021/04/30 03:53:40;;;;;;;5.87;4.27;;;;;;;7.89;100.00;100228.78;5053180;28;20468;-71
2021/04/30 03:56:07;;;;;;;3.80;1.50;;;;;;;7.98;100.00;100230.53;5053287;28;20449;-71
2021/04/30 03:58:33;;;;;;;3.00;2.40;;;;;;;8.04;100.00;100233.94;5052858;28;20442;-71
2021/04/30 04:00:59;;;;;;;1.80;1.30;;;;;;;8.08;100.00;100234.97;5053007;28;20445;-71
2021/04/30 04:03:25;;;;;;;1.77;1.27;;;;;;;8.07;100.00;100239.56;5053151;28;20449;-72
2021/04/30 04:05:51;;;;;;;3.00;2.37;;;;;;;8.11;100.00;100231.69;5053185;28;20496;-72
2021/04/30 04:08:17;;;;;;;4.03;2.70;;;;;;;8.10;99.97;100248.94;5053053;28;20430;-72
2021/04/30 04:10:43;;;;;;;2.17;1.83;;;;;;;8.15;99.80;100253.50;5052968;28;20907;-72
2021/04/30 04:13:17;;;;;;;2.70;1.57;;;;;;;8.16;100.00;100255.09;5052860;28;20469;-72
2021/04/30 04:15:46;;;;;;;3.97;1.73;;;;;;;8.20;99.20;100262.31;5052997;28;20855;-72
2021/04/30 04:18:12;;;;;;;3.27;2.67;;;;;;;8.21;98.68;100263.09;5052738;28;20954;-71
2021/04/30 04:20:38;;;;;;;3.60;2.20;;;;;;;8.25;98.29;100267.63;5052886;28;20861;-71
2021/04/30 04:23:04;;;;;;;4.50;2.30;;;;;;;8.20;98.33;100267.69;5052745;28;20469;-72
2021/04/30 04:25:31;;;;;;;3.10;2.47;;;;;;;8.22;98.32;100275.50;5052881;28;20441;-72
2021/04/30 04:27:56;;;;;;;6.53;2.60;;;;;;;8.27;97.93;100278.09;5052549;28;20893;-71
2021/04/30 04:30:24;;;;;;;3.07;1.67;;;;;;;8.29;98.22;100287.53;5052717;28;20608;-71
2021/04/30 04:32:50;;;;;;;2.93;1.93;;;;;;;8.32;98.31;100286.13;5052557;28;20962;-71
2021/04/30 04:35:16;;;;;;;4.10;2.27;;;;;;;8.38;98.09;100295.00;5066827;28;20487;-72
2021/04/30 04:37:42;;;;;;;2.27;1.70;;;;;;;8.34;98.07;100300.94;5075418;28;20445;-71
2021/04/30 04:40:09;;;;;;;1.90;1.80;;;;;;;8.37;97.59;100294.19;5076553;28;20437;-71
2021/04/30 04:42:35;;;;;;;1.67;1.57;;;;;;;8.39;97.99;100292.00;5076450;28;20465;-72
2021/04/30 04:45:01;;;;;;;3.53;1.87;;;;;;;8.37;97.66;100298.75;5076454;28;20490;-72
2021/04/30 04:47:28;;;;;;;2.90;2.30;;;;;;;8.40;97.51;100304.38;5077520;28;20483;-71
2021/04/30 04:49:54;;;;;;;4.27;2.63;;;;;;;8.40;97.98;100309.78;5076224;28;20441;-71
2021/04/30 04:52:20;;;;;;;6.67;3.33;;;;;;;8.44;97.55;100316.19;5076264;28;20471;-71
2021/04/30 04:54:46;;;;;;;4.33;2.10;;;;;;;8.47;97.00;100325.63;5076258;28;20467;-72
2021/04/30 04:57:12;;;;;;;1.70;1.47;;;;;;;8.50;96.93;100322.31;5082462;28;20436;-72
2021/04/30 04:59:38;;;;;;;3.80;1.23;;;;;;;8.46;97.46;100315.91;5076183;28;20441;-71
2021/04/30 05:02:03;;;;;;;3.40;2.23;;;;;;;8.47;96.74;100326.41;5075834;28;20457;-71
2021/04/30 05:04:30;;;;;;;3.57;2.23;;;;;;;8.43;96.88;100327.28;5075850;28;20441;-69
2021/04/30 05:06:56;;;;;;;2.83;1.93;;;;;;;8.49;96.60;100323.41;5075831;28;21005;-70
2021/04/30 05:09:23;;;;;;;5.37;2.40;;;;;;;8.51;97.03;100327.44;5075933;28;20441;-70
2021/04/30 05:11:49;;;;;;;3.87;3.10;;;;;;;8.51;97.07;100332.84;5075853;28;20502;-70
2021/04/30 05:14:15;;;;;;;4.10;3.10;;;;;;;8.50;97.22;100335.81;5075579;28;20812;-70
2021/04/30 05:16:41;;;;;;;4.53;2.47;;;;;;;8.54;96.48;100337.66;5075792;28;20457;-70
2021/04/30 05:19:07;;;;;;;3.03;2.10;;;;;;;8.57;96.88;100342.44;5075851;28;20448;-70
2021/04/30 05:21:35;;;;;;;2.60;2.27;;;;;;;8.61;96.58;100342.66;5075659;28;20492;-70
2021/04/30 05:24:02;;;;;;;4.33;2.30;;;;;;;8.63;95.40;100355.88;5075749;28;20445;-70
2021/04/30 05:26:29;;;;;;;1.63;1.50;;;;;;;8.69;95.34;100350.09;5075713;28;20455;-71
2021/04/30 05:28:57;;;;;;;2.80;2.07;;;;;;;8.77;94.63;100357.53;5075662;28;20528;-71
2021/04/30 05:31:23;;;;;;;2.50;1.63;;;;;;;8.80;94.32;100373.13;5075124;28;21021;-70
2021/04/30 05:33:48;;;;;;;5.10;2.77;;;;;;;8.83;93.91;100364.47;5075169;28;20440;-70
2021/04/30 05:36:14;;;;;;;3.80;2.90;;;;;;;8.84;94.35;100374.16;5075331;28;20476;-71
2021/04/30 05:38:41;;;;;;;2.73;2.50;;;;;;;8.83;94.71;100383.38;5075446;28;20453;-70
2021/04/30 05:41:07;;;;;;;2.43;1.90;;;;;;;8.88;93.79;100384.38;5075338;28;20448;-70
2021/04/30 05:43:33;;;;;;;5.90;3.37;;;;;;;8.88;93.35;100389.78;5075312;28;20440;-70
2021/04/30 05:45:59;;;;;;;2.80;1.40;;;;;;;8.80;93.79;100389.34;5075321;28;20453;-70
2021/04/30 05:48:25;;;;;;;2.53;1.33;;;;;;;8.74;93.65;100382.44;5074459;28;20827;-71
2021/04/30 05:50:51;;;;;;;2.50;1.50;;;;;;;8.79;93.86;100392.34;5075150;28;20477;-71
2021/04/30 05:53:17;;;;;;;2.60;1.90;;;;;;;8.77;94.01;100391.84;5074810;28;20473;-70
2021/04/30 05:55:44;;;;;;;3.27;1.83;;;;;;;8.71;93.73;100401.09;5075058;28;20445;-70
2021/04/30 05:58:10;;;;;;;2.17;1.90;;;;;;;8.72;93.74;100402.72;5074732;28;20963;-71
2021/04/30 06:00:35;;;;;;;3.50;1.80;;;;;;;8.76;93.56;100409.13;5074979;28;20520;-72
2021/04/30 06:03:01;;;;;;;5.57;2.40;;;;;;;8.68;94.45;100407.91;5074911;28;20824;-72
2021/04/30 06:05:27;;;;;;;2.90;2.20;;;;;;;8.65;94.69;100411.19;5074890;28;20591;-72
2021/04/30 06:07:53;;;;;;;2.47;2.07;;;;;;;8.63;93.35;100410.66;5074836;28;20926;-71
2021/04/30 06:10:19;;;;;;;3.60;1.77;;;;;;;8.50;93.25;100416.78;5074603;28;20481;-71
2021/04/30 06:12:46;;;;;;;2.20;1.57;;;;;;;8.56;92.99;100411.03;5074663;28;21016;-69
2021/04/30 06:15:12;;;;;;;3.93;2.43;;;;;;;8.60;92.56;100432.88;5074693;28;20441;-70
2021/04/30 06:17:39;;;;;;;3.37;1.57;;;;;;;8.69;92.64;100433.00;5074656;28;20801;-73
2021/04/30 06:20:06;;;;;;;1.20;0.87;;;;;;;8.71;92.41;100428.91;5074577;28;20437;-73
2021/04/30 06:22:32;;;;;;;3.20;1.93;;;;;;;8.41;91.96;100437.44;5074366;28;20465;-72
2021/04/30 06:24:58;;;;;;;3.37;1.60;;;;;;;8.49;91.62;100447.56;5074535;28;20448;-72
2021/04/30 06:27:25;;;;;;;2.23;0.90;;;;;;;8.63;90.55;100453.84;5074472;28;20499;-70
2021/04/30 06:29:53;;;;;;;2.03;1.50;;;;;;;8.67;89.47;100454.88;5074411;28;20473;-71
2021/04/30 06:32:19;;;;;;;1.73;1.33;;;;;;;8.68;89.27;100463.81;5074183;28;20485;-69
2021/04/30 06:34:45;;;;;;;2.03;1.17;;;;;;;8.63;88.69;100472.75;5073993;28;20456;-72
2021/04/30 06:37:11;;;;;;;4.07;2.90;;;;;;;8.64;87.79;100469.00;5074306;28;20445;-72
2021/04/30 06:39:37;;;;;;;2.20;1.17;;;;;;;8.63;86.93;100480.84;5073891;28;20442;-72
2021/04/30 06:42:04;;;;;;;2.60;1.30;;;;;;;8.68;86.71;100477.31;5073828;28;20457;-73
2021/04/30 06:44:31;;;;;;;1.93;1.13;;;;;;;8.74;86.53;100493.13;5074181;28;20453;-73
2021/04/30 06:46:57;;;;;;;2.10;0.90;;;;;;;8.75;84.84;100489.34;5080692;28;20516;-73
2021/04/30 06:49:23;;;;;;;1.33;1.00;;;;;;;8.69;83.84;100500.50;5073798;28;20954;-73
2021/04/30 06:51:50;;;;;;;2.10;1.00;;;;;;;8.67;84.15;100503.50;5073903;28;20615;-74
2021/04/30 06:54:16;;;;;;;2.50;0.97;;;;;;;8.76;83.73;100501.75;5074224;28;20454;-74
2021/04/30 06:56:42;;;;;;;1.10;1.00;;;;;;;8.68;83.17;100501.63;5073847;28;20450;-73
2021/04/30 06:59:08;;;;;;;1.30;1.03;;;;;;;8.77;83.55;100503.38;5072833;28;20552;-74
2021/04/30 07:01:34;;;;;;;1.33;0.77;;;;;;;8.89;83.45;100502.13;5073752;28;20453;-72
2021/04/30 07:04:01;;;;;;;2.77;1.60;;;;;;;8.92;82.19;100507.75;5073527;28;20473;-72
2021/04/30 07:06:27;;;;;;;1.30;0.73;;;;;;;8.74;83.24;100506.66;5073685;28;20518;-72
2021/04/30 07:08:53;;;;;;;1.13;0.93;;;;;;;8.84;82.76;100516.50;5073824;28;20448;-72
2021/04/30 07:11:20;;;;;;;2.30;1.03;;;;;;;8.94;83.57;100513.69;5073202;28;20489;-73
2021/04/30 07:13:46;;;;;;;0.93;0.93;;;;;;;9.05;82.90;100520.53;5073317;28;20957;-72
2021/04/30 07:16:13;;;;;;;1.30;0.87;;;;;;;9.13;82.61;100521.78;5073692;28;20448;-73
2021/04/30 07:18:39;;;;;;;1.20;0.90;;;;;;;9.21;81.64;100528.41;5073293;28;21023;-73
2021/04/30 07:21:06;;;;;;;4.87;1.10;;;;;;;9.35;81.51;100524.69;5073555;28;20469;-74
2021/04/30 07:23:33;;;;;;;2.93;1.10;;;;;;;9.47;81.61;100526.13;5073454;28;20861;-72
2021/04/30 07:25:59;;;;;;;1.07;0.93;;;;;;;9.55;80.44;100534.34;5073222;28;20970;-72
2021/04/30 07:28:26;;;;;;;2.50;1.03;;;;;;;9.60;79.77;100536.19;5073424;28;20533;-73
2021/04/30 07:30:52;;;;;;;1.27;0.83;;;;;;;9.78;79.22;100538.06;5073405;28;20481;-73
2021/04/30 07:33:18;;;;;;;1.57;1.00;;;;;;;9.88;78.87;100541.69;5073360;28;20803;-72
2021/04/30 07:35:44;;;;;;;3.27;1.53;;;;;;;10.02;78.73;100545.22;5073096;28;20449;-72
2021/04/30 07:38:12;;;;;;;1.13;1.03;;;;;;;10.04;78.02;100548.41;5073367;28;20857;-72
2021/04/30 07:40:40;;;;;;;2.50;1.00;;;;;;;9.87;78.65;100551.69;5073272;28;20486;-72
2021/04/30 07:43:07;;;;;;;1.67;1.27;;;;;;;9.77;77.93;100560.78;5057935;28;20559;-72
2021/04/30 07:45:33;;;;;;;2.50;1.33;;;;;;;9.78;78.65;100559.69;5053158;28;20446;-72
2021/04/30 07:47:59;;;;;;;2.90;0.90;;;;;;;9.71;79.10;100561.97;5053186;28;20473;-73
2021/04/30 07:50:25;;;;;;;1.40;1.30;;;;;;;9.72;79.24;100560.06;5052975;28;20486;-73
2021/04/30 07:52:51;;;;;;;1.37;0.73;;;;;;;9.74;79.80;100574.91;5052697;28;20997;-73
2021/04/30 07:55:18;;;;;;;1.00;0.63;;;;;;;9.70;79.57;100575.78;5052829;28;20434;-70
2021/04/30 08:05:30;;;;;;;0.70;0.57;;;;;;;9.57;78.20;100591.66;5079619;22;20489;-82
2021/04/30 08:07:58;;;;;;;1.00;0.50;;;;;;;9.39;78.54;100584.38;5057115;28;20454;-81
2021/04/30 08:10:25;;;;;;;2.33;1.10;;;;;;;9.29;80.00;100590.72;5058272;28;20485;-82
2021/04/30 08:12:51;;;;;;;0.80;0.60;;;;;;;9.40;80.25;100593.28;5062339;28;20450;-81
2021/04/30 08:15:17;;;;;;;4.50;1.40;;;;;;;9.37;79.51;100599.28;5061521;28;20821;-82
2021/04/30 08:17:43;;;;;;;1.00;0.70;;;;;;;9.26;80.17;100606.72;5062647;28;20512;-82
2021/04/30 08:20:10;;;;;;;1.77;0.80;;;;;;;9.26;80.54;100604.81;5049492;28;20466;-83
2021/04/30 08:22:36;;;;;;;1.13;0.87;;;;;;;9.11;80.80;100605.00;5049968;28;20849;-82
2021/04/30 08:25:03;;;;;;;2.20;1.07;;;;;;;9.15;80.89;100611.44;5052457;28;20514;-83
2021/04/30 08:27:30;;;;;;;0.57;0.40;;;;;;;9.14;81.08;100609.03;5060586;28;20438;-82
2021/04/30 08:29:56;;;;;;;1.53;0.80;;;;;;;9.09;80.70;100618.03;5062619;28;20448;-82
2021/04/30 08:32:22;;;;;;;0.70;0.70;;;;;;;9.31;81.34;100626.38;5062275;28;20517;-83
2021/04/30 08:34:48;;;;;;;1.30;0.70;;;;;;;9.35;80.25;100635.50;5064815;28;20462;-84
2021/04/30 08:37:14;;;;;;;1.77;1.00;;;;;;;9.31;80.93;100630.97;5064295;28;20519;-83
2021/04/30 08:39:41;;;;;;;0.93;0.67;;;;;;;9.27;79.90;100624.53;5046363;28;20591;-82
2021/04/30 08:47:30;;;;;;;1.43;0.80;;;;;;;9.57;78.99;100637.63;5177682;22;20266;-81
2021/04/30 08:49:56;;;;;;;3.53;1.30;;;;;;;9.35;77.21;100642.81;5061532;28;20449;-82
2021/04/30 08:52:23;;;;;;;1.20;0.80;;;;;;;9.19;77.10;100646.81;5063050;28;21051;-81
2021/04/30 08:54:52;;;;;;;0.90;0.70;;;;;;;9.21;77.35;100648.13;5062764;28;20492;-82
2021/04/30 08:57:23;;;;;;;0.90;0.77;;;;;;;9.12;77.21;100655.28;5063270;28;20553;-83
2021/04/30 08:59:54;;;;;;;1.70;0.97;;;;;;;9.22;77.55;100649.75;5062226;28;20438;-82
2021/04/30 09:02:22;;;;;;;2.23;1.10;;;;;;;9.08;77.07;100648.84;5063057;28;20438;-81
2021/04/30 09:04:49;;;;;;;2.30;0.60;;;;;;;9.09;78.15;100656.66;5062162;28;20442;-82
2021/04/30 09:07:20;;;;;;;1.33;0.90;;;;;;;8.87;78.20;100658.28;5063033;28;20466;-83
2021/04/30 09:09:57;;;;;;;0.53;0.50;;;;;;;9.05;78.27;100662.94;5063133;28;20850;-82
2021/04/30 09:12:27;;;;;;;1.10;0.90;;;;;;;9.19;78.15;100663.03;5063113;28;20490;-82
2021/04/30 09:14:53;;;;;;;0.50;0.50;;;;;;;9.42;77.35;100669.47;5062911;28;20456;-82
2021/04/30 09:17:20;;;;;;;3.70;1.50;;;;;;;9.60;76.61;100671.38;5060586;28;20465;-81
2021/04/30 09:19:48;;;;;;;1.50;0.63;;;;;;;9.74;76.07;100668.75;5062320;28;20450;-82
2021/04/30 09:22:17;;;;;;;0.97;0.87;;;;;;;10.02;75.02;100677.81;5061839;28;20443;-82
2021/04/30 09:24:49;;;;;;;1.57;0.60;;;;;;;10.29;73.57;100680.63;5062970;28;20514;-82
2021/04/30 09:27:28;;;;;;;1.47;0.80;;;;;;;10.40;72.11;100675.03;5062413;28;20525;-82
2021/04/30 09:30:13;;;;;;;0.70;0.67;;;;;;;10.70;71.51;100669.06;5062633;28;20438;-82
2021/04/30 09:33:00;;;;;;;1.50;0.90;;;;;;;10.95;69.45;100678.63;5061964;28;20500;-82
2021/04/30 09:35:26;;;;;;;1.33;1.03;;;;;;;10.98;69.29;100688.06;5061339;28;20428;-82
2021/04/30 09:37:53;;;;;;;1.37;1.10;;;;;;;10.91;68.41;100683.03;5063241;28;20442;-81
2021/04/30 09:40:25;;;;;;;1.33;1.17;;;;;;;11.07;68.94;100684.38;5064394;28;20530;-82
2021/04/30 09:43:02;;;;;;;1.77;0.60;;;;;;;11.27;69.02;100682.31;5064654;28;20461;-83
2021/04/30 09:45:28;;;;;;;0.60;0.50;;;;;;;10.90;68.49;100689.56;5063657;28;20458;-82
2021/04/30 09:47:58;;;;;;;1.67;1.03;;;;;;;11.09;69.52;100689.47;5062331;28;20545;-82
2021/04/30 09:50:26;;;;;;;0.93;0.70;;;;;;;11.01;68.39;100690.97;5061033;28;20533;-82
2021/04/30 09:52:57;;;;;;;0.93;0.70;;;;;;;11.01;68.33;100698.31;5062437;28;20427;-82
2021/04/30 09:55:38;;;;;;;1.33;0.77;;;;;;;10.95;68.87;100699.50;5061489;28;20461;-83
2021/04/30 09:58:15;;;;;;;1.10;1.00;;;;;;;10.79;69.57;100702.50;5062042;28;20498;-82
2021/04/30 10:00:43;;;;;;;2.87;1.67;;;;;;;10.77;69.96;100699.28;5061422;28;20434;-82
2021/04/30 10:03:17;;;;;;;0.80;0.70;;;;;;;10.88;70.40;100704.50;5062151;28;20501;-82
2021/04/30 10:06:05;;;;;;;1.63;0.87;;;;;;;10.88;70.63;100704.50;5061028;28;20480;-82
2021/04/30 10:08:34;;;;;;;1.23;0.70;;;;;;;10.69;70.75;100710.81;5063611;28;20450;-81
2021/04/30 10:11:00;;;;;;;1.80;0.80;;;;;;;10.62;71.43;100704.97;5062891;28;20485;-82
2021/04/30 10:13:27;;;;;;;1.73;1.53;;;;;;;10.46;70.85;100692.81;5063966;28;20453;-81
2021/04/30 10:15:53;;;;;;;1.10;0.60;;;;;;;10.80;70.83;100704.13;5065843;28;20537;-80
2021/04/30 10:18:19;;;;;;;1.10;0.80;;;;;;;11.10;71.03;100708.13;5061078;28;20862;-81
2021/04/30 10:20:45;;;;;;;0.70;0.60;;;;;;;11.21;68.67;100703.34;5056244;28;20447;-81
2021/04/30 10:23:16;;;;;;;2.10;1.37;;;;;;;11.27;68.62;100702.09;5061060;28;20822;-81
2021/04/30 10:25:47;;;;;;;0.83;0.70;;;;;;;11.47;68.05;100694.66;5064525;28;20464;-82
2021/04/30 10:28:16;;;;;;;3.37;0.93;;;;;;;11.75;66.77;100701.63;5063545;28;20476;-81
2021/04/30 10:30:50;;;;;;;3.13;1.00;;;;;;;11.78;65.64;100695.59;5063095;28;20486;-81
2021/04/30 10:33:21;;;;;;;2.20;1.40;;;;;;;11.81;64.70;100692.25;5063847;28;20430;-80
2021/04/30 10:35:52;;;;;;;0.70;0.70;;;;;;;11.83;64.11;100694.72;5062921;28;20543;-82
2021/04/30 10:38:21;;;;;;;4.27;1.00;;;;;;;12.01;64.89;100699.16;5062333;28;20548;-82
2021/04/30 10:40:59;;;;;;;0.93;0.80;;;;;;;12.15;64.55;100706.44;5061839;28;20477;-80
2021/04/30 10:43:25;;;;;;;0.90;0.50;;;;;;;11.91;63.57;100704.84;5063314;28;20438;-80
2021/04/30 10:46:02;;;;;;;1.00;0.73;;;;;;;11.43;64.96;100693.66;5064382;28;20462;-83
2021/04/30 10:48:30;;;;;;;1.20;1.00;;;;;;;11.34;65.00;100702.50;5062763;28;20473;-81
2021/04/30 10:51:08;;;;;;;1.37;1.10;;;;;;;11.32;65.83;100703.91;5062203;28;20540;-81
2021/04/30 10:53:34;;;;;;;1.77;0.73;;;;;;;11.52;64.99;100703.50;5064154;28;20426;-81
2021/04/30 10:56:28;;;;;;;2.00;1.10;;;;;;;11.70;65.08;100703.66;5063636;28;20458;-82
2021/04/30 10:58:54;;;;;;;1.20;1.10;;;;;;;11.91;63.94;100698.59;5063685;28;20460;-82
2021/04/30 11:01:25;;;;;;;1.50;1.13;;;;;;;11.75;65.04;100690.78;5062098;28;20435;-81
2021/04/30 11:04:19;;;;;;;1.40;1.30;;;;;;;11.81;65.97;100696.88;5064164;28;20446;-80
2021/04/30 11:06:51;;;;;;;1.23;0.60;;;;;;;11.70;67.21;100709.88;5044221;28;20458;-81
2021/04/30 11:09:31;;;;;;;1.47;1.20;;;;;;;11.47;66.83;100705.53;5048052;28;20522;-81
2021/04/30 11:12:01;;;;;;;2.20;0.97;;;;;;;11.42;66.94;100690.16;5063287;28;20474;-80
2021/04/30 11:14:30;;;;;;;1.30;1.00;;;;;;;11.31;66.96;100708.53;5067169;28;20846;-80
2021/04/30 11:16:57;;;;;;;1.37;1.10;;;;;;;11.21;68.08;100697.91;5066149;28;20562;-81
2021/04/30 11:19:25;;;;;;;3.10;2.20;;;;;;;10.83;69.62;100708.94;5066566;28;20496;-81
2021/04/30 11:21:52;;;;;;;1.53;1.30;;;;;;;10.69;70.59;100712.72;5063463;28;20442;-81
2021/04/30 11:24:42;;;;;;;2.27;2.00;;;;;;;10.66;71.21;100719.53;5067853;28;20451;-80
2021/04/30 11:27:36;;;;;;;2.50;1.40;;;;;;;10.79;71.47;100713.34;5059996;28;20904;-78
2021/04/30 11:30:24;;;;;;;1.40;0.87;;;;;;;10.81;71.28;100716.56;5054961;28;20954;-79
2021/04/30 11:32:58;;;;;;;1.37;1.23;;;;;;;11.10;70.53;100712.75;5056318;28;20496;-78
2021/04/30 11:35:25;;;;;;;1.43;1.20;;;;;;;11.50;70.53;100716.53;5055735;28;20967;-78
2021/04/30 11:37:53;;;;;;;0.87;0.70;;;;;;;11.97;70.45;100717.19;5058287;28;20438;-78
2021/04/30 11:40:21;;;;;;;2.63;1.97;;;;;;;12.16;66.09;100722.44;5059591;28;20446;-79
2021/04/30 11:42:48;;;;;;;2.90;1.33;;;;;;;12.24;63.83;100729.84;5062222;28;20451;-79
2021/04/30 11:45:14;;;;;;;2.20;2.00;;;;;;;12.28;64.19;100741.69;5058670;28;20492;-79
2021/04/30 11:47:41;;;;;;;2.00;1.13;;;;;;;11.96;65.71;100739.22;5055096;28;20533;-78